1958 Tropical Low NOT_NAMED (1958092S10159)


IBTrACS version v04r00. Visit IBTrACS website for data access.
Please direct all questions to the IBTrACS Q and A forum

Storm track - Intensity - Wind Radii - Intensity Data - Source Data - All data

Summary Information

Storm ID 1958092S10159
Start Apr 2 05Z
Landfall Apr 9 03Z
Max Intensity 30 kt (Apr 3 18Z), 998 mb (Apr 7 05Z)
End Apr 9 23Z
ATCF IDs ,SH271958
Track status Best track data.

Storm track plot

Map of storm track

Intensity plots

Map of storm track

Radial wind information

No radial wind information for this storm


Position and Intensity Table

BASIN ISO_TIME_________ NATURE LAT LON WMO PRES BOM PRES DS824 WIND DS824 PRES
degrees north degrees east mb mb kts mb
SP 1958-04-02 05:00:00 NR -10.00 159.00 1005 1005
SP 06:00:00 TS -10.01 158.83 20 1005
SP 09:00:00 TS -10.04 158.35
SP 11:00:00 TS -10.07 158.19
SP 12:00:00 TS -10.05 158.25
SP 15:00:00 TS -9.92 157.77
SP 18:00:00 TS -9.80 157.23
SP 21:00:00 TS -9.79 156.69
SP 23:00:00 TS -9.86 156.37
SP 1958-04-03 00:00:00 TS -9.91 156.22
SP 03:00:00 TS -10.12 155.81
SP 05:00:00 TS -10.31 155.62 1002 1002
SP 06:00:00 TS -10.43 155.56 1001 25 1002
SP 09:00:00 TS -10.82 155.50 1001 26 1001
SP 11:00:00 TS -11.11 155.57 1001 27 1001
SP 12:00:00 TS -11.26 155.62 1000 27 1001
SP 15:00:00 TS -11.71 155.87 1000 28 1000
SP 17:00:00 TS -11.98 156.10 1000 1000 29 1000
SP 18:00:00 TS -12.09 156.22 1000 30 1000
SP 21:00:00 TS -12.36 156.60 1000 30 1000
SP 23:00:00 TS -12.50 156.88 1000 1000 30 1000
SP 1958-04-04 00:00:00 TS -12.56 157.02 30 1000
SP 03:00:00 TS -12.69 157.45
SP 06:00:00 TS -12.76 157.89
SP 09:00:00 TS -12.79 158.31
SP 11:00:00 TS -12.80 158.58
SP 12:00:00 TS -12.81 158.71
SP 15:00:00 TS -12.88 159.11
SP 18:00:00 TS -12.94 159.47
SP 21:00:00 TS -12.98 159.75
SP 23:00:00 TS -13.00 159.90 1000 1000
SP 1958-04-05 00:00:00 TS -13.00 159.97 30 1000
SP 03:00:00 TS -13.02 160.15
SP 06:00:00 TS -13.02 160.30
SP 09:00:00 TS -13.03 160.41
SP 11:00:00 TS -13.02 160.48
SP 12:00:00 TS -13.02 160.51
SP 15:00:00 TS -13.02 160.63
SP 18:00:00 TS -13.01 160.75
SP 21:00:00 TS -13.00 160.85
SP 23:00:00 TS -13.00 160.92 999 999
SP 1958-04-06 00:00:00 TS -13.00 160.96 30 999
SP 03:00:00 TS -13.00 161.08
SP 06:00:00 TS -13.00 161.20
SP 09:00:00 TS -13.00 161.33
SP 11:00:00 TS -13.00 161.41
SP 12:00:00 TS -13.00 161.45
SP 15:00:00 TS -13.00 161.52
SP 18:00:00 TS -13.00 161.62
SP 21:00:00 TS -13.00 161.81
SP 23:00:00 TS -13.00 162.00
SP 1958-04-07 00:00:00 TS -13.00 162.11
SP 03:00:00 TS -13.00 162.56
SP 05:00:00 TS -13.01 162.95 998 998
SP 06:00:00 TS -13.01 163.17
SP 09:00:00 TS -13.04 163.87
SP 11:00:00 TS -13.06 164.38
SP 12:00:00 TS -13.08 164.60
SP 13:00:00 TS -13.09 164.78
SP 15:00:00 TS -13.08 165.11
SP 18:00:00 TS -13.10 165.65
SP 21:00:00 TS -13.19 166.25
SP 23:00:00 TS -13.31 166.79
SP 1958-04-08 00:00:00 TS -13.39 167.12
SP 03:00:00 TS -13.71 168.40
SP 06:00:00 TS -14.10 169.92
SP 09:00:00 TS -14.49 171.47
SP 11:00:00 TS -14.77 172.50
SP 12:00:00 TS -14.91 172.99
SP 15:00:00 TS -15.37 174.40
SP 18:00:00 TS -15.81 175.71
SP 21:00:00 TS -16.20 176.98
SP 23:00:00 TS -16.41 177.74
SP 1958-04-09 00:00:00 TS -16.49 178.08
SP 03:00:00 TS -16.64 178.97
SP 06:00:00 TS -16.71 179.69
SP 09:00:00 TS -16.76 180.33
SP 11:00:00 TS -16.79 180.71
SP 12:00:00 TS -16.81 180.90
SP 15:00:00 TS -16.85 181.44
SP 18:00:00 TS -16.91 181.97
SP 21:00:00 NR -16.96 182.46
SP 23:00:00 NR -17.00 182.80

Source Information

Agency Information
USA bsh271958.txt
TOKYO
CMA
HKO
NEWDELHI
REUNION
BOM IDCKMSTM0S.csv:Line=2609:unnamed
NADI
WELLINGTON
DS824 aus_area.dat:265:NOT NAMED
TD9636 cons_worldwide_trop_cyclone_18710101-19891231-006:Line=5198
TD9635
NEUMANN
MLC

All available IBTrACS Data

SEASON BASIN SUBBASIN ISO_TIME_________ NATURE LAT LON WMO PRES WMO AGENCY DIST2LAND LANDFALL IFLAG USA AGENCY USA ATCF_ID USA LAT USA LON USA SSHS BOM LAT BOM LON BOM PRES BOM PRES_METHOD DS824 LAT DS824 LON DS824 STAGE DS824 WIND DS824 PRES TD9636 LAT TD9636 LON TD9636 STAGE STORM SPEED STORM DIR
Year degrees north degrees east mb km km degrees north degrees east 1 degrees north degrees east mb degrees north degrees east kts mb degrees north degrees east kts degrees
1958 SP EA 1958-04-02 05:00:00 NR -10.00 159.00 1005 bom 86 86 ______O_______ -1 -10.00 159.00 1005 10 266
1958 SP EA 06:00:00 TS -10.01 158.83 104 104 ______P__O____ -1 -10.02 158.84 -10.00 158.80 TC 20 1005 10 266
1958 SP EA 09:00:00 TS -10.04 158.35 153 153 ______P__P____ -1 -10.07 158.36 -10.01 158.32 TC 8 265
1958 SP EA 11:00:00 TS -10.07 158.19 167 167 ______P__PO___ -1 -10.10 158.04 -10.01 158.01 TC -10.10 159.30 1 2 269
1958 SP EA 12:00:00 TS -10.05 158.25 153 145 O_____P__PP___ jtwc_sh SH271958 -10.00 159.00 -1 -10.11 157.88 -10.01 157.85 TC -10.03 159.04 1 6 289
1958 SP EA 15:00:00 TS -9.92 157.77 145 138 P_____P__PP___ SH271958 -9.68 158.16 -1 -10.14 157.41 -10.03 157.39 TC -9.82 158.26 1 10 284
1958 SP EA 18:00:00 TS -9.80 157.23 149 149 O_____P__PP___ jtwc_sh SH271958 -9.50 157.40 -1 -10.15 156.95 -10.04 156.94 TC -9.67 157.53 1 11 277
1958 SP EA 21:00:00 TS -9.79 156.69 176 176 P_____P__PP___ SH271958 -9.55 156.78 -1 -10.13 156.50 -10.07 156.51 TC -9.64 156.87 1 10 266
1958 SP EA 23:00:00 TS -9.86 156.37 bom 199 199 P_____O__PO___ SH271958 -9.70 156.45 -1 -10.10 156.20 -10.09 156.23 TC -9.70 156.50 1 10 255
1958 SP EA 1958-04-03 00:00:00 TS -9.91 156.22 210 210 O_____P__OP___ jtwc_sh SH271958 -9.80 156.30 -1 -10.08 156.06 -10.10 156.10 TC -9.76 156.33 1 9 244
1958 SP EA 03:00:00 TS -10.12 155.81 253 253 P_____P__PP___ SH271958 -10.17 155.86 -1 -10.05 155.67 -10.16 155.74 TC -10.05 155.93 1 9 235
1958 SP EA 05:00:00 TS -10.31 155.62 1002 bom 284 284 P_____O__PP___ SH271958 -10.46 155.66 -1 -10.10 155.50 1002 -10.24 155.56 TC -10.31 155.74 1 8 218
1958 SP EA 06:00:00 TS -10.43 155.56 293 293 O_____P__OP___ jtwc_sh SH271958 -10.60 155.60 -1 -10.19 155.44 1001 -10.30 155.50 TC 25 1002 -10.45 155.68 1 8 193
1958 SP EA 09:00:00 TS -10.82 155.50 336 336 P_____P__PP___ SH271958 -10.95 155.55 -1 -10.64 155.39 1001 -10.66 155.45 TC 26 1001 -10.90 155.58 1 8 178
1958 SP EA 11:00:00 TS -11.11 155.57 359 359 P_____P__PO___ SH271958 -11.18 155.63 -1 -11.01 155.45 1001 -10.98 155.53 TC 27 1001 -11.20 155.60 1 9 165
1958 SP EA 12:00:00 TS -11.26 155.62 379 374 O_____P__PP___ jtwc_sh SH271958 -11.30 155.70 -1 -11.21 155.51 1000 -11.15 155.59 TC 27 1001 -11.34 155.63 1 10 153
1958 SP EA 15:00:00 TS -11.71 155.87 404 404 P_____P__PP___ SH271958 -11.70 155.95 -1 -11.74 155.76 1000 -11.64 155.85 TC 28 1000 -11.77 155.84 1 10 147
1958 SP EA 17:00:00 TS -11.98 156.10 1000 bom 423 419 P_____O__PP___ SH271958 -11.97 156.18 -1 -12.00 156.00 1000 -11.90 156.08 TC 29 1000 -12.05 156.05 1 10 138
1958 SP EA 18:00:00 TS -12.09 156.22 429 425 O_____P__OP___ jtwc_sh SH271958 -12.10 156.30 -1 -12.06 156.13 1000 -12.00 156.20 TC 30 1000 -12.18 156.18 1 9 128
1958 SP EA 21:00:00 TS -12.36 156.60 445 437 P_____P__PP___ SH271958 -12.49 156.63 -1 -12.17 156.58 1000 -12.14 156.58 TC 30 1000 -12.52 156.60 1 9 123
1958 SP EA 23:00:00 TS -12.50 156.88 1000 bom 437 429 P_____O__PO___ SH271958 -12.71 156.87 -1 -12.20 156.90 1000 -12.18 156.86 TC 30 1000 -12.70 156.90 1 9 116
1958 SP EA 1958-04-04 00:00:00 TS -12.56 157.02 437 415 O_____P__OP___ jtwc_sh SH271958 -12.80 157.00 -1 -12.24 157.05 -12.20 157.00 TC 30 1000 -12.76 157.03 1 9 109
1958 SP EA 03:00:00 TS -12.69 157.45 410 391 P_____P__PP___ SH271958 -12.96 157.44 -1 -12.35 157.50 -12.31 157.41 TC -12.88 157.46 1 9 103
1958 SP EA 06:00:00 TS -12.76 157.89 394 373 O_____P__PP___ jtwc_sh SH271958 -13.00 157.90 -1 -12.46 157.94 -12.42 157.83 TC -12.91 157.90 1 8 97
1958 SP EA 09:00:00 TS -12.79 158.31 373 360 P_____P__PP___ SH271958 -12.96 158.31 -1 -12.58 158.37 -12.54 158.25 TC -12.91 158.33 1 8 93
1958 SP EA 11:00:00 TS -12.80 158.58 360 356 P_____P__PO___ SH271958 -12.91 158.57 -1 -12.65 158.64 -12.61 158.52 TC -12.90 158.60 1 8 93
1958 SP EA 12:00:00 TS -12.81 158.71 356 347 O_____P__PP___ jtwc_sh SH271958 -12.90 158.70 -1 -12.69 158.78 -12.65 158.65 TC -12.91 158.73 1 8 98
1958 SP EA 15:00:00 TS -12.88 159.11 355 337 P_____P__PP___ SH271958 -12.94 159.13 -1 -12.79 159.16 -12.76 159.03 TC -12.95 159.11 1 8 100
1958 SP EA 18:00:00 TS -12.94 159.47 337 332 O_____P__PP___ jtwc_sh SH271958 -13.00 159.50 -1 -12.88 159.51 -12.85 159.39 TC -12.97 159.45 1 6 100
1958 SP EA 21:00:00 TS -12.98 159.75 326 320 P_____P__PP___ SH271958 -13.01 159.74 -1 -12.96 159.82 -12.94 159.72 TC -12.99 159.74 1 5 98
1958 SP EA 23:00:00 TS -13.00 159.90 1000 bom 320 314 P_____O__PO___ SH271958 -13.00 159.85 -1 -13.00 160.00 1000 -12.98 159.91 TC -13.00 159.90 1 4 96
1958 SP EA 1958-04-05 00:00:00 TS -13.00 159.97 314 308 O_____P__OP___ jtwc_sh SH271958 -13.00 159.90 -1 -13.01 160.08 -13.00 160.00 TC 30 1000 -13.00 159.97 1 4 95
1958 SP MM 03:00:00 TS -13.02 160.15 301 295 P_____P__PP___ SH271958 -13.00 160.07 -1 -13.04 160.28 -13.04 160.21 TC -13.01 160.13 1 3 94
1958 SP MM 06:00:00 TS -13.02 160.30 295 289 O_____P__PP___ jtwc_sh SH271958 -13.00 160.20 -1 -13.06 160.45 -13.06 160.39 TC -13.01 160.24 1 2 92
1958 SP MM 09:00:00 TS -13.03 160.41 289 284 P_____P__PP___ SH271958 -13.00 160.30 -1 -13.06 160.58 -13.06 160.52 TC -13.00 160.34 1 2 90
1958 SP MM 11:00:00 TS -13.02 160.48 284 284 P_____P__PO___ SH271958 -13.00 160.36 -1 -13.06 160.65 -13.06 160.60 TC -13.00 160.40 1 2 89
1958 SP MM 12:00:00 TS -13.02 160.51 284 278 O_____P__PP___ jtwc_sh SH271958 -13.00 160.40 -1 -13.06 160.68 -13.06 160.64 TC -13.00 160.44 1 2 88
1958 SP MM 15:00:00 TS -13.02 160.63 278 273 P_____P__PP___ SH271958 -13.00 160.55 -1 -13.04 160.77 -13.05 160.73 TC -13.00 160.56 1 2 87
1958 SP MM 18:00:00 TS -13.01 160.75 269 269 O_____P__PP___ jtwc_sh SH271958 -13.00 160.70 -1 -13.03 160.86 -13.03 160.82 TC -13.00 160.68 1 2 87
1958 SP MM 21:00:00 TS -13.00 160.85 265 265 P_____P__PP___ SH271958 -13.00 160.80 -1 -13.01 160.94 -13.01 160.90 TC -13.00 160.81 1 2 86
1958 SP MM 23:00:00 TS -13.00 160.92 999 bom 265 261 P_____O__PO___ SH271958 -13.00 160.86 -1 -13.00 161.00 999 -13.00 160.97 TC -13.00 160.90 1 2 87
1958 SP MM 1958-04-06 00:00:00 TS -13.00 160.96 261 257 O_____P__OP___ jtwc_sh SH271958 -13.00 160.90 -1 -13.00 161.04 -13.00 161.00 TC 30 999 -13.00 160.95 1 2 90
1958 SP MM 03:00:00 TS -13.00 161.08 257 254 P_____P__PP___ SH271958 -13.00 161.04 -1 -13.00 161.16 -13.00 161.04 TC -13.00 161.10 1 2 90
1958 SP MM 06:00:00 TS -13.00 161.20 254 252 O_____P__PP___ jtwc_sh SH271958 -13.00 161.20 -1 -13.00 161.27 -13.00 161.08 TC -13.00 161.26 1 2 90
1958 SP MM 09:00:00 TS -13.00 161.33 252 250 P_____P__PP___ SH271958 -13.00 161.37 -1 -13.00 161.40 -13.00 161.12 TC -13.00 161.41 1 2 90
1958 SP MM 11:00:00 TS -13.00 161.41 250 250 P_____P__PO___ SH271958 -13.00 161.46 -1 -13.00 161.48 -13.00 161.17 TC -13.00 161.50 1 2 90
1958 SP MM 12:00:00 TS -13.00 161.45 250 248 O_____P__PP___ jtwc_sh SH271958 -13.00 161.50 -1 -13.00 161.53 -13.00 161.20 TC -13.00 161.51 1 2 89
1958 SP MM 15:00:00 TS -13.00 161.52 248 247 P_____P__PP___ SH271958 -13.00 161.54 -1 -13.00 161.66 -13.00 161.32 TC -12.99 161.54 1 2 90
1958 SP MM 18:00:00 TS -13.00 161.62 247 246 O_____P__PP___ jtwc_sh SH271958 -13.00 161.60 -1 -13.00 161.81 -13.00 161.52 TC -12.99 161.58 1 3 90
1958 SP MM 21:00:00 TS -13.00 161.81 246 246 P_____P__PP___ SH271958 -13.00 161.77 -1 -13.00 161.98 -13.00 161.81 TC -12.99 161.72 1 4 90
1958 SP MM 23:00:00 TS -13.00 162.00 bom 246 246 P_____O__PO___ SH271958 -13.00 161.97 -1 -13.00 162.10 -13.00 162.06 TC -13.00 161.90 1 6 90
1958 SP MM 1958-04-07 00:00:00 TS -13.00 162.11 246 246 O_____P__OP___ jtwc_sh SH271958 -13.00 162.10 -1 -13.00 162.12 -13.00 162.20 TC -13.00 162.04 1 8 90
1958 SP MM 03:00:00 TS -13.00 162.56 248 248 P_____P__PP___ SH271958 -12.99 162.64 -1 -13.00 162.25 -13.00 162.71 TC -13.02 162.57 1 10 90
1958 SP MM 05:00:00 TS -13.01 162.95 998 bom 257 257 P_____O__PP___ SH271958 -12.99 163.08 -1 -13.00 162.50 998 4 -13.00 163.11 TC -13.04 163.00 1 12 91
1958 SP MM 06:00:00 TS -13.01 163.17 265 265 O_____P__PP___ jtwc_sh SH271958 -13.00 163.30 -1 -13.00 162.70 -13.00 163.32 TC -13.04 163.23 1 13 92
1958 SP MM 09:00:00 TS -13.04 163.87 301 301 P_____P__PP___ SH271958 -13.05 163.96 -1 -13.00 163.54 -13.00 164.00 TC -13.08 163.93 1 14 93
1958 SP MM 11:00:00 TS -13.06 164.38 296 279 P_____P__PO___ SH271958 -13.09 164.39 -1 -13.00 164.24 -13.00 164.46 TC -13.10 164.40 1 14 93
1958 SP MM 12:00:00 TS -13.08 164.60 279 264 O_____P__OP___ jtwc_sh SH271958 -13.10 164.60 -1 -13.00 164.62 -13.00 164.70 TC -13.10 164.56 1 12 93
1958 SP MM 13:00:00 TS -13.09 164.78 bom 264 241 P_____O___P___ SH271958 -13.10 164.79 -1 -13.00 165.00 TC -13.09 164.72 1 10 91
1958 SP MM 15:00:00 TS -13.08 165.11 241 209 P_________P___ SH271958 -13.08 165.14 -1 TC -13.08 165.03 1 10 91
1958 SP MM 18:00:00 TS -13.10 165.65 209 173 O_________P___ jtwc_sh SH271958 -13.10 165.70 -1 TC -13.10 165.55 1 11 96
1958 SP MM 21:00:00 TS -13.19 166.25 171 156 P_________P___ SH271958 -13.20 166.27 -1 TC -13.19 166.22 1 14 101
1958 SP MM 23:00:00 TS -13.31 166.79 158 149 P_________O___ SH271958 -13.32 166.78 -1 TC -13.30 166.80 1 17 103
1958 SP MM 1958-04-08 00:00:00 TS -13.39 167.12 155 155 O_________P___ jtwc_sh SH271958 -13.40 167.10 -1 -13.38 167.17 1 24 104
1958 SP MM 03:00:00 TS -13.71 168.40 202 202 P_________P___ SH271958 -13.71 168.37 -1 -13.70 168.47 1 28 104
1958 SP MM 06:00:00 TS -14.10 169.92 317 317 O_________P___ jtwc_sh SH271958 -14.10 169.90 -1 -14.09 169.95 1 31 105
1958 SP MM 09:00:00 TS -14.49 171.47 445 445 P_________P___ SH271958 -14.48 171.46 -1 -14.51 171.49 1 31 105
1958 SP MM 11:00:00 TS -14.77 172.50 530 530 P_________O___ SH271958 -14.76 172.50 -1 -14.80 172.50 2 31 106
1958 SP MM 12:00:00 TS -14.91 172.99 558 419 O_________P___ jtwc_sh SH271958 -14.90 173.00 -1 -14.94 172.98 2 29 108
1958 SP MM 15:00:00 TS -15.37 174.40 403 277 P_________P___ SH271958 -15.36 174.40 -1 -15.39 174.39 2 28 109
1958 SP MM 18:00:00 TS -15.81 175.71 270 158 O_________P___ jtwc_sh SH271958 -15.80 175.70 -1 -15.82 175.74 2 26 109
1958 SP MM 21:00:00 TS -16.20 176.98 154 91 P_________P___ SH271958 -16.20 176.98 -1 -16.20 176.97 2 24 107
1958 SP MM 23:00:00 TS -16.41 177.74 91 57 P_________O___ SH271958 -16.42 177.75 -1 -16.40 177.70 1 22 105
1958 SP MM 1958-04-09 00:00:00 TS -16.49 178.08 48 0 O_________P___ jtwc_sh SH271958 -16.50 178.10 -1 -16.47 178.04 1 18 101
1958 SP MM 03:00:00 TS -16.64 178.97 0 0 P_________P___ SH271958 -16.64 178.99 -1 -16.63 178.93 1 16 98
1958 SP MM 06:00:00 TS -16.71 179.69 0 0 O_________P___ jtwc_sh SH271958 -16.70 179.70 -1 -16.72 179.67 1 13 95
1958 SP MM 09:00:00 TS -16.76 180.33 42 42 P_________P___ SH271958 -16.76 -179.66 -1 -16.77 -179.69 1 12 95
1958 SP MM 11:00:00 TS -16.79 180.71 85 85 P_________O___ SH271958 -16.79 -179.28 -1 -16.80 -179.30 1 11 94
1958 SP MM 12:00:00 TS -16.81 180.90 106 106 O_________P___ jtwc_sh SH271958 -16.80 -179.10 -1 -16.81 -179.11 1 11 95
1958 SP MM 15:00:00 TS -16.85 181.44 160 160 P_________P___ SH271958 -16.85 -178.55 -1 -16.86 -178.57 1 10 96
1958 SP MM 18:00:00 TS -16.91 181.97 223 223 O_________P___ jtwc_sh SH271958 -16.90 -178.00 -1 -16.91 -178.04 1 10 96
1958 SP MM 21:00:00 NR -16.96 182.46 277 277 __________P___ SH271958 -1 -16.96 -177.54 1 10 97
1958 SP MM 23:00:00 NR -17.00 182.80 309 __________O___ SH271958 -1 -17.00 -177.20 1 10 96